sensor_id;sensor_type;location;lat;lon;timestamp;temperature;humidity
52609;DHT22;38503;48.544;12.142;2023-03-01T00:01:22;1.70;1.00
52609;DHT22;38503;48.544;12.142;2023-03-01T00:03:49;1.70;1.00
52609;DHT22;38503;48.544;12.142;2023-03-01T00:06:16;1.60;1.00
52609;DHT22;38503;48.544;12.142;2023-03-01T00:08:44;1.60;1.00
52609;DHT22;38503;48.544;12.142;2023-03-01T00:13:45;1.60;1.00
52609;DHT22;38503;48.544;12.142;2023-03-01T00:16:19;1.60;1.00
52609;DHT22;38503;48.544;12.142;2023-03-01T00:18:46;1.60;1.00
52609;DHT22;38503;48.544;12.142;2023-03-01T00:21:13;1.50;1.00
52609;DHT22;38503;48.544;12.142;2023-03-01T00:23:40;1.50;1.00
52609;DHT22;38503;48.544;12.142;2023-03-01T00:26:12;1.50;1.00
52609;DHT22;38503;48.544;12.142;2023-03-01T00:28:40;1.50;1.00
52609;DHT22;38503;48.544;12.142;2023-03-01T00:31:13;1.60;1.00
52609;DHT22;38503;48.544;12.142;2023-03-01T00:33:41;1.50;1.00
52609;DHT22;38503;48.544;12.142;2023-03-01T00:36:09;1.50;1.00
52609;DHT22;38503;48.544;12.142;2023-03-01T00:38:38;1.50;1.00
52609;DHT22;38503;48.544;12.142;2023-03-01T00:41:09;1.60;1.00
52609;DHT22;38503;48.544;12.142;2023-03-01T00:43:36;1.40;1.00
52609;DHT22;38503;48.544;12.142;2023-03-01T00:46:09;1.40;1.00
52609;DHT22;38503;48.544;12.142;2023-03-01T00:48:37;1.40;1.00
52609;DHT22;38503;48.544;12.142;2023-03-01T00:53:32;1.20;1.00
52609;DHT22;38503;48.544;12.142;2023-03-01T00:55:59;1.10;1.00
52609;DHT22;38503;48.544;12.142;2023-03-01T00:58:26;1.00;1.00
52609;DHT22;38503;48.544;12.142;2023-03-01T01:00:53;1.00;1.00
52609;DHT22;38503;48.544;12.142;2023-03-01T01:03:20;0.90;1.00
52609;DHT22;38503;48.544;12.142;2023-03-01T01:05:47;0.90;1.00
52609;DHT22;38503;48.544;12.142;2023-03-01T01:08:14;0.90;1.00
52609;DHT22;38503;48.544;12.142;2023-03-01T01:10:44;0.80;1.00
52609;DHT22;38503;48.544;12.142;2023-03-01T01:13:11;0.80;1.00
52609;DHT22;38503;48.544;12.142;2023-03-01T01:15:39;0.70;1.00
52609;DHT22;38503;48.544;12.142;2023-03-01T01:18:06;0.70;1.00
52609;DHT22;38503;48.544;12.142;2023-03-01T01:20:35;0.60;1.00
52609;DHT22;38503;48.544;12.142;2023-03-01T01:23:05;0.60;1.00
52609;DHT22;38503;48.544;12.142;2023-03-01T01:25:34;0.80;1.00
52609;DHT22;38503;48.544;12.142;2023-03-01T01:28:02;0.40;1.00
52609;DHT22;38503;48.544;12.142;2023-03-01T01:30:29;0.30;1.00
52609;DHT22;38503;48.544;12.142;2023-03-01T01:32:56;0.30;1.00
52609;DHT22;38503;48.544;12.142;2023-03-01T01:35:23;0.20;1.00
52609;DHT22;38503;48.544;12.142;2023-03-01T01:37:49;0.10;1.00
52609;DHT22;38503;48.544;12.142;2023-03-01T01:40:16;0.10;1.00
52609;DHT22;38503;48.544;12.142;2023-03-01T01:42:43;0.00;1.00
52609;DHT22;38503;48.544;12.142;2023-03-01T01:45:32;0.00;2.90
52609;DHT22;38503;48.544;12.142;2023-03-01T01:48:06;-0.10;6.40
52609;DHT22;38503;48.544;12.142;2023-03-01T01:50:39;0.00;5.80
52609;DHT22;38503;48.544;12.142;2023-03-01T01:53:12;-0.10;6.80
52609;DHT22;38503;48.544;12.142;2023-03-01T01:55:45;-0.10;7.40
52609;DHT22;38503;48.544;12.142;2023-03-01T01:58:15;-0.20;6.50
52609;DHT22;38503;48.544;12.142;2023-03-01T02:00:44;-0.20;7.10
52609;DHT22;38503;48.544;12.142;2023-03-01T02:03:15;-0.30;8.60
52609;DHT22;38503;48.544;12.142;2023-03-01T02:08:28;-0.40;9.30
52609;DHT22;38503;48.544;12.142;2023-03-01T02:10:57;-0.40;10.00
52609;DHT22;38503;48.544;12.142;2023-03-01T02:13:27;-0.50;11.30
52609;DHT22;38503;48.544;12.142;2023-03-01T02:15:54;-0.50;13.10
52609;DHT22;38503;48.544;12.142;2023-03-01T02:18:22;-0.40;14.00
52609;DHT22;38503;48.544;12.142;2023-03-01T02:23:40;-0.50;11.70
52609;DHT22;38503;48.544;12.142;2023-03-01T02:26:21;-0.50;13.10
52609;DHT22;38503;48.544;12.142;2023-03-01T02:28:51;-0.50;10.40
52609;DHT22;38503;48.544;12.142;2023-03-01T02:31:19;-0.60;10.30
52609;DHT22;38503;48.544;12.142;2023-03-01T02:34:16;-0.60;12.00
52609;DHT22;38503;48.544;12.142;2023-03-01T02:36:47;-0.70;12.50
52609;DHT22;38503;48.544;12.142;2023-03-01T02:39:22;-0.70;14.50
52609;DHT22;38503;48.544;12.142;2023-03-01T02:41:52;-0.70;14.00
52609;DHT22;38503;48.544;12.142;2023-03-01T02:44:21;-0.70;14.00
52609;DHT22;38503;48.544;12.142;2023-03-01T02:46:51;-0.70;13.00
52609;DHT22;38503;48.544;12.142;2023-03-01T02:49:22;-0.70;10.90
52609;DHT22;38503;48.544;12.142;2023-03-01T02:54:52;-0.80;13.40
52609;DHT22;38503;48.544;12.142;2023-03-01T02:57:21;-0.80;15.60
52609;DHT22;38503;48.544;12.142;2023-03-01T02:59:50;-0.90;17.10
52609;DHT22;38503;48.544;12.142;2023-03-01T03:02:23;-1.00;17.70
52609;DHT22;38503;48.544;12.142;2023-03-01T03:05:18;-0.90;19.20
52609;DHT22;38503;48.544;12.142;2023-03-01T03:07:47;-0.90;18.50
52609;DHT22;38503;48.544;12.142;2023-03-01T03:10:17;-1.00;18.10
52609;DHT22;38503;48.544;12.142;2023-03-01T03:12:50;-1.00;19.20
52609;DHT22;38503;48.544;12.142;2023-03-01T03:15:18;-1.00;19.50
52609;DHT22;38503;48.544;12.142;2023-03-01T03:17:45;-1.00;18.50
52609;DHT22;38503;48.544;12.142;2023-03-01T03:20:14;-1.00;18.50
52609;DHT22;38503;48.544;12.142;2023-03-01T03:22:51;-1.00;20.00
52609;DHT22;38503;48.544;12.142;2023-03-01T03:25:19;-1.10;19.80
52609;DHT22;38503;48.544;12.142;2023-03-01T03:27:48;-1.10;22.10
52609;DHT22;38503;48.544;12.142;2023-03-01T03:30:18;-1.20;23.80
52609;DHT22;38503;48.544;12.142;2023-03-01T03:32:47;-1.20;25.30
52609;DHT22;38503;48.544;12.142;2023-03-01T03:35:30;-1.20;25.50
52609;DHT22;38503;48.544;12.142;2023-03-01T03:38:00;-1.20;25.10
52609;DHT22;38503;48.544;12.142;2023-03-01T03:42:59;-1.20;27.60
52609;DHT22;38503;48.544;12.142;2023-03-01T03:45:26;-1.30;29.70
52609;DHT22;38503;48.544;12.142;2023-03-01T03:47:53;-1.30;32.10
52609;DHT22;38503;48.544;12.142;2023-03-01T03:50:20;-1.30;33.30
52609;DHT22;38503;48.544;12.142;2023-03-01T03:52:46;-1.30;34.90
52609;DHT22;38503;48.544;12.142;2023-03-01T03:55:13;-1.30;33.80
52609;DHT22;38503;48.544;12.142;2023-03-01T03:57:41;-1.30;35.50
52609;DHT22;38503;48.544;12.142;2023-03-01T04:00:11;-1.30;32.60
52609;DHT22;38503;48.544;12.142;2023-03-01T04:02:42;-1.30;36.40
52609;DHT22;38503;48.544;12.142;2023-03-01T04:05:10;-1.40;35.90
52609;DHT22;38503;48.544;12.142;2023-03-01T04:07:38;-1.40;37.30
52609;DHT22;38503;48.544;12.142;2023-03-01T04:10:08;-1.40;37.80
52609;DHT22;38503;48.544;12.142;2023-03-01T04:12:35;-1.50;38.60
52609;DHT22;38503;48.544;12.142;2023-03-01T04:15:04;-1.50;40.40
52609;DHT22;38503;48.544;12.142;2023-03-01T04:17:48;-1.50;40.40
52609;DHT22;38503;48.544;12.142;2023-03-01T04:20:16;-1.50;38.80
52609;DHT22;38503;48.544;12.142;2023-03-01T04:22:44;-1.50;38.60
52609;DHT22;38503;48.544;12.142;2023-03-01T04:25:14;-1.50;36.70
52609;DHT22;38503;48.544;12.142;2023-03-01T04:27:41;-1.50;37.10
52609;DHT22;38503;48.544;12.142;2023-03-01T04:30:08;-1.50;39.50
52609;DHT22;38503;48.544;12.142;2023-03-01T04:32:35;-1.50;38.00
52609;DHT22;38503;48.544;12.142;2023-03-01T04:35:02;-1.60;38.50
52609;DHT22;38503;48.544;12.142;2023-03-01T04:37:29;-1.60;41.80
52609;DHT22;38503;48.544;12.142;2023-03-01T04:39:56;-1.60;40.90
52609;DHT22;38503;48.544;12.142;2023-03-01T04:42:23;-1.60;42.20
52609;DHT22;38503;48.544;12.142;2023-03-01T04:44:49;-1.70;41.70
52609;DHT22;38503;48.544;12.142;2023-03-01T04:47:17;-1.70;45.60
52609;DHT22;38503;48.544;12.142;2023-03-01T04:49:44;-1.70;45.60
52609;DHT22;38503;48.544;12.142;2023-03-01T04:52:11;-1.70;47.20
52609;DHT22;38503;48.544;12.142;2023-03-01T04:54:37;-1.60;46.40
52609;DHT22;38503;48.544;12.142;2023-03-01T04:57:04;-1.70;45.50
52609;DHT22;38503;48.544;12.142;2023-03-01T04:59:31;-1.80;47.90
52609;DHT22;38503;48.544;12.142;2023-03-01T05:01:58;-1.80;48.80
52609;DHT22;38503;48.544;12.142;2023-03-01T05:04:26;-1.80;50.10
52609;DHT22;38503;48.544;12.142;2023-03-01T05:06:53;-1.80;50.70
52609;DHT22;38503;48.544;12.142;2023-03-01T05:09:20;-1.90;51.20
52609;DHT22;38503;48.544;12.142;2023-03-01T05:11:47;-1.80;54.40
52609;DHT22;38503;48.544;12.142;2023-03-01T05:14:14;-1.80;55.20
52609;DHT22;38503;48.544;12.142;2023-03-01T05:16:41;-1.70;57.50
52609;DHT22;38503;48.544;12.142;2023-03-01T05:19:08;-1.70;54.70
52609;DHT22;38503;48.544;12.142;2023-03-01T05:21:42;-1.80;52.80
52609;DHT22;38503;48.544;12.142;2023-03-01T05:24:32;-1.70;49.90
52609;DHT22;38503;48.544;12.142;2023-03-01T05:27:00;-1.80;49.10
52609;DHT22;38503;48.544;12.142;2023-03-01T05:29:28;-1.90;48.30
52609;DHT22;38503;48.544;12.142;2023-03-01T05:32:01;-1.80;46.80
52609;DHT22;38503;48.544;12.142;2023-03-01T05:34:31;-1.80;46.50
52609;DHT22;38503;48.544;12.142;2023-03-01T05:36:59;-1.90;47.70
52609;DHT22;38503;48.544;12.142;2023-03-01T05:39:28;-1.90;48.50
52609;DHT22;38503;48.544;12.142;2023-03-01T05:41:58;-1.90;49.60
52609;DHT22;38503;48.544;12.142;2023-03-01T05:44:29;-1.90;51.20
52609;DHT22;38503;48.544;12.142;2023-03-01T05:46:56;-1.90;53.50
52609;DHT22;38503;48.544;12.142;2023-03-01T05:49:23;-1.90;54.30
52609;DHT22;38503;48.544;12.142;2023-03-01T05:51:52;-1.90;54.60
52609;DHT22;38503;48.544;12.142;2023-03-01T05:54:20;-1.90;55.00
52609;DHT22;38503;48.544;12.142;2023-03-01T05:56:48;-1.90;56.60
52609;DHT22;38503;48.544;12.142;2023-03-01T05:59:15;-1.80;56.20
52609;DHT22;38503;48.544;12.142;2023-03-01T06:01:43;-1.80;54.60
52609;DHT22;38503;48.544;12.142;2023-03-01T06:04:10;-1.80;54.10
52609;DHT22;38503;48.544;12.142;2023-03-01T06:06:37;-1.80;54.70
52609;DHT22;38503;48.544;12.142;2023-03-01T06:09:05;-1.80;53.90
52609;DHT22;38503;48.544;12.142;2023-03-01T06:11:34;-1.80;53.60
52609;DHT22;38503;48.544;12.142;2023-03-01T06:14:02;-1.80;54.20
52609;DHT22;38503;48.544;12.142;2023-03-01T06:16:28;-1.50;59.90
52609;DHT22;38503;48.544;12.142;2023-03-01T06:18:56;-1.10;41.90
52609;DHT22;38503;48.544;12.142;2023-03-01T06:21:22;-0.90;27.20
52609;DHT22;38503;48.544;12.142;2023-03-01T06:23:49;-0.60;25.60
52609;DHT22;38503;48.544;12.142;2023-03-01T06:26:16;0.00;4.20
52609;DHT22;38503;48.544;12.142;2023-03-01T06:28:43;0.60;1.00
52609;DHT22;38503;48.544;12.142;2023-03-01T06:31:12;1.20;1.00
52609;DHT22;38503;48.544;12.142;2023-03-01T06:33:39;1.80;1.00
52609;DHT22;38503;48.544;12.142;2023-03-01T06:36:07;2.50;1.00
52609;DHT22;38503;48.544;12.142;2023-03-01T06:38:34;2.70;1.00
52609;DHT22;38503;48.544;12.142;2023-03-01T06:41:01;3.20;1.00
52609;DHT22;38503;48.544;12.142;2023-03-01T06:43:28;3.20;99.90
52609;DHT22;38503;48.544;12.142;2023-03-01T06:45:55;3.70;99.90
52609;DHT22;38503;48.544;12.142;2023-03-01T06:48:22;4.30;94.20
52609;DHT22;38503;48.544;12.142;2023-03-01T06:50:49;4.30;93.50
52609;DHT22;38503;48.544;12.142;2023-03-01T06:53:15;4.70;93.20
52609;DHT22;38503;48.544;12.142;2023-03-01T06:55:42;5.40;92.30
52609;DHT22;38503;48.544;12.142;2023-03-01T06:58:09;4.90;92.00
52609;DHT22;38503;48.544;12.142;2023-03-01T07:00:36;5.10;91.80
52609;DHT22;38503;48.544;12.142;2023-03-01T07:03:03;5.50;91.60
52609;DHT22;38503;48.544;12.142;2023-03-01T07:05:30;5.40;90.70
52609;DHT22;38503;48.544;12.142;2023-03-01T07:07:57;5.60;91.00
52609;DHT22;38503;48.544;12.142;2023-03-01T07:10:24;5.80;90.30
52609;DHT22;38503;48.544;12.142;2023-03-01T07:12:54;6.20;89.70
52609;DHT22;38503;48.544;12.142;2023-03-01T07:15:21;6.10;89.30
52609;DHT22;38503;48.544;12.142;2023-03-01T07:17:51;6.50;89.10
52609;DHT22;38503;48.544;12.142;2023-03-01T07:20:19;6.50;87.40
52609;DHT22;38503;48.544;12.142;2023-03-01T07:22:52;6.60;87.70
52609;DHT22;38503;48.544;12.142;2023-03-01T07:25:19;6.70;87.50
52609;DHT22;38503;48.544;12.142;2023-03-01T07:27:52;6.60;85.90
52609;DHT22;38503;48.544;12.142;2023-03-01T07:30:20;6.70;86.00
52609;DHT22;38503;48.544;12.142;2023-03-01T07:32:47;7.20;85.70
52609;DHT22;38503;48.544;12.142;2023-03-01T07:35:14;7.40;84.50
52609;DHT22;38503;48.544;12.142;2023-03-01T07:37:41;7.80;83.70
52609;DHT22;38503;48.544;12.142;2023-03-01T07:40:10;7.70;83.60
52609;DHT22;38503;48.544;12.142;2023-03-01T07:42:37;7.40;82.80
52609;DHT22;38503;48.544;12.142;2023-03-01T07:45:04;7.30;83.70
52609;DHT22;38503;48.544;12.142;2023-03-01T07:47:32;8.10;81.80
52609;DHT22;38503;48.544;12.142;2023-03-01T07:49:59;7.30;81.80
52609;DHT22;38503;48.544;12.142;2023-03-01T07:52:25;8.30;80.60
52609;DHT22;38503;48.544;12.142;2023-03-01T07:54:52;7.70;81.10
52609;DHT22;38503;48.544;12.142;2023-03-01T07:57:19;8.00;81.30
52609;DHT22;38503;48.544;12.142;2023-03-01T07:59:46;7.80;80.10
52609;DHT22;38503;48.544;12.142;2023-03-01T08:02:12;7.80;80.90
52609;DHT22;38503;48.544;12.142;2023-03-01T08:04:42;8.00;80.00
52609;DHT22;38503;48.544;12.142;2023-03-01T08:07:09;8.40;80.30
52609;DHT22;38503;48.544;12.142;2023-03-01T08:09:36;7.90;78.10
52609;DHT22;38503;48.544;12.142;2023-03-01T08:12:05;8.80;77.00
52609;DHT22;38503;48.544;12.142;2023-03-01T08:14:32;8.60;76.60
52609;DHT22;38503;48.544;12.142;2023-03-01T08:16:59;8.40;76.70
52609;DHT22;38503;48.544;12.142;2023-03-01T08:19:26;7.80;76.60
52609;DHT22;38503;48.544;12.142;2023-03-01T08:21:54;8.10;78.40
52609;DHT22;38503;48.544;12.142;2023-03-01T08:24:24;8.40;78.00
52609;DHT22;38503;48.544;12.142;2023-03-01T08:26:51;8.60;76.40
52609;DHT22;38503;48.544;12.142;2023-03-01T08:29:18;8.60;75.90
52609;DHT22;38503;48.544;12.142;2023-03-01T08:31:44;8.60;74.30
52609;DHT22;38503;48.544;12.142;2023-03-01T08:34:14;8.80;74.20
52609;DHT22;38503;48.544;12.142;2023-03-01T08:36:44;8.50;74.70
52609;DHT22;38503;48.544;12.142;2023-03-01T08:39:13;8.20;73.90
52609;DHT22;38503;48.544;12.142;2023-03-01T08:41:41;9.40;74.40
52609;DHT22;38503;48.544;12.142;2023-03-01T08:44:09;9.50;73.20
52609;DHT22;38503;48.544;12.142;2023-03-01T08:46:41;9.40;72.20
52609;DHT22;38503;48.544;12.142;2023-03-01T08:49:11;9.60;71.10
52609;DHT22;38503;48.544;12.142;2023-03-01T08:51:38;9.70;70.20
52609;DHT22;38503;48.544;12.142;2023-03-01T08:54:09;9.10;69.70
52609;DHT22;38503;48.544;12.142;2023-03-01T08:56:36;8.70;68.00
52609;DHT22;38503;48.544;12.142;2023-03-01T08:59:03;8.50;70.80
52609;DHT22;38503;48.544;12.142;2023-03-01T09:01:30;8.00;71.00
52609;DHT22;38503;48.544;12.142;2023-03-01T09:03:57;6.90;71.70
52609;DHT22;38503;48.544;12.142;2023-03-01T09:06:24;7.30;72.40
52609;DHT22;38503;48.544;12.142;2023-03-01T09:08:51;8.00;71.60
52609;DHT22;38503;48.544;12.142;2023-03-01T09:11:20;8.70;70.60
52609;DHT22;38503;48.544;12.142;2023-03-01T09:13:48;8.20;69.30
52609;DHT22;38503;48.544;12.142;2023-03-01T09:16:18;8.60;69.70
52609;DHT22;38503;48.544;12.142;2023-03-01T09:18:49;8.80;69.00
52609;DHT22;38503;48.544;12.142;2023-03-01T09:21:17;8.80;69.40
52609;DHT22;38503;48.544;12.142;2023-03-01T09:24:03;9.00;69.40
52609;DHT22;38503;48.544;12.142;2023-03-01T09:26:29;8.80;70.00
52609;DHT22;38503;48.544;12.142;2023-03-01T09:28:57;9.20;69.70
52609;DHT22;38503;48.544;12.142;2023-03-01T09:31:24;8.30;69.00
52609;DHT22;38503;48.544;12.142;2023-03-01T09:33:53;9.00;68.90
52609;DHT22;38503;48.544;12.142;2023-03-01T09:36:22;8.30;69.50
52609;DHT22;38503;48.544;12.142;2023-03-01T09:38:49;8.60;70.20
52609;DHT22;38503;48.544;12.142;2023-03-01T09:47:20;7.70;71.10
52609;DHT22;38503;48.544;12.142;2023-03-01T09:52:40;9.00;70.20
52609;DHT22;38503;48.544;12.142;2023-03-01T09:55:11;8.60;70.30
52609;DHT22;38503;48.544;12.142;2023-03-01T10:00:42;8.00;70.10
52609;DHT22;38503;48.544;12.142;2023-03-01T10:06:23;7.90;71.40
52609;DHT22;38503;48.544;12.142;2023-03-01T10:09:07;8.30;70.80
52609;DHT22;38503;48.544;12.142;2023-03-01T10:11:39;8.00;72.00
52609;DHT22;38503;48.544;12.142;2023-03-01T10:14:36;9.20;71.00
52609;DHT22;38503;48.544;12.142;2023-03-01T10:17:28;8.70;70.60
52609;DHT22;38503;48.544;12.142;2023-03-01T10:22:51;9.70;69.90
52609;DHT22;38503;48.544;12.142;2023-03-01T10:25:56;9.40;70.30
52609;DHT22;38503;48.544;12.142;2023-03-01T10:28:37;10.50;67.30
52609;DHT22;38503;48.544;12.142;2023-03-01T10:31:13;10.50;66.70
52609;DHT22;38503;48.544;12.142;2023-03-01T10:33:41;9.50;68.30
52609;DHT22;38503;48.544;12.142;2023-03-01T10:36:08;9.70;68.80
52609;DHT22;38503;48.544;12.142;2023-03-01T10:38:56;9.10;69.30
52609;DHT22;38503;48.544;12.142;2023-03-01T10:41:26;9.60;69.50
52609;DHT22;38503;48.544;12.142;2023-03-01T10:43:56;8.70;69.90
52609;DHT22;38503;48.544;12.142;2023-03-01T10:46:33;9.10;71.40
52609;DHT22;38503;48.544;12.142;2023-03-01T10:51:44;9.10;71.30
52609;DHT22;38503;48.544;12.142;2023-03-01T10:54:29;9.40;69.90
52609;DHT22;38503;48.544;12.142;2023-03-01T10:57:03;10.10;68.90
52609;DHT22;38503;48.544;12.142;2023-03-01T10:59:34;10.40;68.20
52609;DHT22;38503;48.544;12.142;2023-03-01T11:02:17;10.40;67.80
52609;DHT22;38503;48.544;12.142;2023-03-01T11:05:01;9.70;69.30
52609;DHT22;38503;48.544;12.142;2023-03-01T11:07:29;10.00;68.70
52609;DHT22;38503;48.544;12.142;2023-03-01T11:09:56;10.30;66.70
52609;DHT22;38503;48.544;12.142;2023-03-01T11:12:24;10.00;68.10
52609;DHT22;38503;48.544;12.142;2023-03-01T11:14:54;10.50;68.50
52609;DHT22;38503;48.544;12.142;2023-03-01T11:17:30;10.10;68.80
52609;DHT22;38503;48.544;12.142;2023-03-01T11:22:54;9.90;69.80
52609;DHT22;38503;48.544;12.142;2023-03-01T11:25:26;11.60;67.60
52609;DHT22;38503;48.544;12.142;2023-03-01T11:27:55;11.00;66.20
52609;DHT22;38503;48.544;12.142;2023-03-01T11:35:39;10.80;67.80
52609;DHT22;38503;48.544;12.142;2023-03-01T11:38:26;11.40;67.50
52609;DHT22;38503;48.544;12.142;2023-03-01T11:41:03;11.70;66.90
52609;DHT22;38503;48.544;12.142;2023-03-01T11:43:51;11.60;66.40
52609;DHT22;38503;48.544;12.142;2023-03-01T11:57:58;11.00;65.60
52609;DHT22;38503;48.544;12.142;2023-03-01T12:03:34;12.50;65.20
52609;DHT22;38503;48.544;12.142;2023-03-01T12:16:59;12.20;65.40
52609;DHT22;38503;48.544;12.142;2023-03-01T12:25:28;11.90;66.20
52609;DHT22;38503;48.544;12.142;2023-03-01T12:31:13;11.90;67.30
52609;DHT22;38503;48.544;12.142;2023-03-01T12:33:54;11.90;66.80
52609;DHT22;38503;48.544;12.142;2023-03-01T12:41:46;12.20;66.50
52609;DHT22;38503;48.544;12.142;2023-03-01T12:50:02;11.40;68.30
52609;DHT22;38503;48.544;12.142;2023-03-01T12:55:08;10.80;68.00
52609;DHT22;38503;48.544;12.142;2023-03-01T12:57:53;10.70;68.90
52609;DHT22;38503;48.544;12.142;2023-03-01T13:06:32;9.60;72.90
52609;DHT22;38503;48.544;12.142;2023-03-01T13:11:59;9.40;1.00
52609;DHT22;38503;48.544;12.142;2023-03-01T13:14:48;9.90;44.40
52609;DHT22;38503;48.544;12.142;2023-03-01T13:17:46;9.50;29.50
52609;DHT22;38503;48.544;12.142;2023-03-01T13:20:16;9.00;91.00
52609;DHT22;38503;48.544;12.142;2023-03-01T13:22:45;8.80;1.00
52609;DHT22;38503;48.544;12.142;2023-03-01T13:25:20;8.80;99.90
52609;DHT22;38503;48.544;12.142;2023-03-01T13:27:51;9.00;1.00
52609;DHT22;38503;48.544;12.142;2023-03-01T13:30:40;8.90;1.00
52609;DHT22;38503;48.544;12.142;2023-03-01T13:35:53;8.90;1.00
52609;DHT22;38503;48.544;12.142;2023-03-01T13:41:04;8.80;1.00
52609;DHT22;38503;48.544;12.142;2023-03-01T13:43:37;8.70;1.00
52609;DHT22;38503;48.544;12.142;2023-03-01T13:46:11;8.50;99.90
52609;DHT22;38503;48.544;12.142;2023-03-01T13:48:40;8.20;1.00
52609;DHT22;38503;48.544;12.142;2023-03-01T13:51:11;8.30;1.00
52609;DHT22;38503;48.544;12.142;2023-03-01T13:53:45;8.50;1.00
52609;DHT22;38503;48.544;12.142;2023-03-01T13:56:27;8.40;1.00
52609;DHT22;38503;48.544;12.142;2023-03-01T13:59:01;8.40;1.00
52609;DHT22;38503;48.544;12.142;2023-03-01T14:01:31;8.40;1.00
52609;DHT22;38503;48.544;12.142;2023-03-01T14:04:00;8.40;99.90
52609;DHT22;38503;48.544;12.142;2023-03-01T14:06:29;8.60;1.00
52609;DHT22;38503;48.544;12.142;2023-03-01T14:09:04;8.60;1.00
52609;DHT22;38503;48.544;12.142;2023-03-01T14:14:39;8.70;1.00
52609;DHT22;38503;48.544;12.142;2023-03-01T14:19:57;8.70;1.00
52609;DHT22;38503;48.544;12.142;2023-03-01T14:22:34;8.90;99.90
52609;DHT22;38503;48.544;12.142;2023-03-01T14:25:06;8.70;99.90
52609;DHT22;38503;48.544;12.142;2023-03-01T14:27:42;8.70;99.90
52609;DHT22;38503;48.544;12.142;2023-03-01T14:30:20;8.70;1.00
52609;DHT22;38503;48.544;12.142;2023-03-01T14:33:00;8.70;1.00
52609;DHT22;38503;48.544;12.142;2023-03-01T14:35:33;8.70;1.00
52609;DHT22;38503;48.544;12.142;2023-03-01T14:38:01;8.80;99.90
52609;DHT22;38503;48.544;12.142;2023-03-01T14:40:31;9.00;99.90
52609;DHT22;38503;48.544;12.142;2023-03-01T14:43:01;8.80;1.00
52609;DHT22;38503;48.544;12.142;2023-03-01T14:45:29;8.90;1.00
52609;DHT22;38503;48.544;12.142;2023-03-01T14:48:00;9.00;99.90
52609;DHT22;38503;48.544;12.142;2023-03-01T14:50:33;9.00;1.00
52609;DHT22;38503;48.544;12.142;2023-03-01T14:53:05;9.00;1.00
52609;DHT22;38503;48.544;12.142;2023-03-01T14:55:40;9.20;1.00
52609;DHT22;38503;48.544;12.142;2023-03-01T14:58:17;9.10;51.80
52609;DHT22;38503;48.544;12.142;2023-03-01T15:00:55;9.00;99.90
52609;DHT22;38503;48.544;12.142;2023-03-01T15:03:37;9.00;99.90
52609;DHT22;38503;48.544;12.142;2023-03-01T15:06:06;9.10;40.60
52609;DHT22;38503;48.544;12.142;2023-03-01T15:08:35;9.10;99.90
52609;DHT22;38503;48.544;12.142;2023-03-01T15:11:15;9.00;1.00
52609;DHT22;38503;48.544;12.142;2023-03-01T15:13:44;9.10;53.90
52609;DHT22;38503;48.544;12.142;2023-03-01T15:16:15;9.00;99.90
52609;DHT22;38503;48.544;12.142;2023-03-01T15:18:55;8.90;1.00
52609;DHT22;38503;48.544;12.142;2023-03-01T15:24:15;8.80;1.00
52609;DHT22;38503;48.544;12.142;2023-03-01T15:26:57;8.70;33.20
52609;DHT22;38503;48.544;12.142;2023-03-01T15:29:30;8.70;1.00
52609;DHT22;38503;48.544;12.142;2023-03-01T15:32:03;8.60;99.90
52609;DHT22;38503;48.544;12.142;2023-03-01T15:34:36;8.60;99.90
52609;DHT22;38503;48.544;12.142;2023-03-01T15:37:32;8.70;1.00
52609;DHT22;38503;48.544;12.142;2023-03-01T15:39:56;8.70;1.00
52609;DHT22;38503;48.544;12.142;2023-03-01T15:47:40;8.30;14.30
52609;DHT22;38503;48.544;12.142;2023-03-01T15:50:25;8.20;99.90
52609;DHT22;38503;48.544;12.142;2023-03-01T15:52:54;8.10;1.00
52609;DHT22;38503;48.544;12.142;2023-03-01T15:55:30;8.10;13.80
52609;DHT22;38503;48.544;12.142;2023-03-01T15:58:28;8.10;1.00
52609;DHT22;38503;48.544;12.142;2023-03-01T16:00:55;8.00;1.00
52609;DHT22;38503;48.544;12.142;2023-03-01T16:03:27;7.90;1.00
52609;DHT22;38503;48.544;12.142;2023-03-01T16:05:54;7.90;1.00
52609;DHT22;38503;48.544;12.142;2023-03-01T16:08:21;7.80;50.60
52609;DHT22;38503;48.544;12.142;2023-03-01T16:10:49;7.80;99.90
52609;DHT22;38503;48.544;12.142;2023-03-01T16:13:18;7.80;99.90
52609;DHT22;38503;48.544;12.142;2023-03-01T16:15:45;7.70;99.90
52609;DHT22;38503;48.544;12.142;2023-03-01T16:18:12;7.70;1.00
52609;DHT22;38503;48.544;12.142;2023-03-01T16:20:39;7.60;1.00
52609;DHT22;38503;48.544;12.142;2023-03-01T16:23:09;7.60;1.00
52609;DHT22;38503;48.544;12.142;2023-03-01T16:25:36;7.50;1.00
52609;DHT22;38503;48.544;12.142;2023-03-01T16:28:04;7.50;36.40
52609;DHT22;38503;48.544;12.142;2023-03-01T16:30:37;7.40;99.90
52609;DHT22;38503;48.544;12.142;2023-03-01T16:33:04;7.20;99.90
52609;DHT22;38503;48.544;12.142;2023-03-01T16:35:50;7.10;99.90
52609;DHT22;38503;48.544;12.142;2023-03-01T16:38:17;7.00;99.90
52609;DHT22;38503;48.544;12.142;2023-03-01T16:40:47;6.90;99.90
52609;DHT22;38503;48.544;12.142;2023-03-01T16:43:15;6.80;99.90
52609;DHT22;38503;48.544;12.142;2023-03-01T16:45:41;6.70;99.90
52609;DHT22;38503;48.544;12.142;2023-03-01T16:48:11;6.70;1.00
52609;DHT22;38503;48.544;12.142;2023-03-01T16:50:38;6.60;1.00
52609;DHT22;38503;48.544;12.142;2023-03-01T16:53:04;6.60;1.00
52609;DHT22;38503;48.544;12.142;2023-03-01T16:55:32;6.50;1.00
52609;DHT22;38503;48.544;12.142;2023-03-01T16:58:00;6.30;1.00
52609;DHT22;38503;48.544;12.142;2023-03-01T17:00:27;6.30;1.00
52609;DHT22;38503;48.544;12.142;2023-03-01T17:02:54;6.20;1.00
52609;DHT22;38503;48.544;12.142;2023-03-01T17:05:21;6.10;1.00
52609;DHT22;38503;48.544;12.142;2023-03-01T17:07:50;6.10;1.00
52609;DHT22;38503;48.544;12.142;2023-03-01T17:10:17;6.00;1.00
52609;DHT22;38503;48.544;12.142;2023-03-01T17:12:47;5.90;1.00
52609;DHT22;38503;48.544;12.142;2023-03-01T17:15:14;5.80;1.00
52609;DHT22;38503;48.544;12.142;2023-03-01T17:17:41;5.80;1.00
52609;DHT22;38503;48.544;12.142;2023-03-01T17:20:08;5.70;1.00
52609;DHT22;38503;48.544;12.142;2023-03-01T17:22:36;5.70;1.00
52609;DHT22;38503;48.544;12.142;2023-03-01T17:25:03;5.60;1.00
52609;DHT22;38503;48.544;12.142;2023-03-01T17:27:29;5.50;1.00
52609;DHT22;38503;48.544;12.142;2023-03-01T17:30:01;5.50;1.00
52609;DHT22;38503;48.544;12.142;2023-03-01T17:32:28;5.40;1.00
52609;DHT22;38503;48.544;12.142;2023-03-01T17:34:55;5.40;1.00
52609;DHT22;38503;48.544;12.142;2023-03-01T17:37:22;5.40;1.00
52609;DHT22;38503;48.544;12.142;2023-03-01T17:39:49;5.40;1.00
52609;DHT22;38503;48.544;12.142;2023-03-01T17:42:16;5.20;1.00
52609;DHT22;38503;48.544;12.142;2023-03-01T17:44:42;5.20;1.00
52609;DHT22;38503;48.544;12.142;2023-03-01T17:47:09;5.10;1.00
52609;DHT22;38503;48.544;12.142;2023-03-01T17:49:36;5.10;1.00
52609;DHT22;38503;48.544;12.142;2023-03-01T17:52:03;5.00;1.00